createdAt,value
2018-08-24T00:02:16.972Z,7.33
2018-08-24T00:04:45.673Z,6.33
2018-08-24T00:07:14.402Z,7.35
2018-08-24T00:09:43.238Z,7.60
2018-08-24T00:12:12.012Z,7.70
2018-08-24T00:14:40.787Z,6.83
2018-08-24T00:17:14.784Z,6.90
2018-08-24T00:19:43.412Z,6.83
2018-08-24T00:22:12.147Z,6.85
2018-08-24T00:24:40.791Z,7.37
2018-08-24T00:27:09.407Z,6.73
2018-08-24T00:29:38.188Z,7.40
2018-08-24T00:32:06.800Z,7.33
2018-08-24T00:34:35.406Z,7.13
2018-08-24T00:37:04.480Z,7.30
2018-08-24T00:39:33.054Z,7.47
2018-08-24T00:42:01.858Z,7.87
2018-08-24T00:44:30.561Z,7.93
2018-08-24T00:47:04.616Z,8.23
2018-08-24T00:49:33.249Z,9.63
2018-08-24T00:52:01.897Z,8.25
2018-08-24T00:54:30.468Z,8.43
2018-08-24T00:56:59.126Z,7.70
2018-08-24T00:59:28.002Z,8.43
2018-08-24T01:01:57.009Z,8.75
2018-08-24T01:04:31.054Z,8.27
2018-08-24T01:07:00.435Z,8.20
2018-08-24T01:09:29.283Z,8.90
2018-08-24T01:12:03.685Z,8.80
2018-08-24T01:14:32.532Z,8.90
2018-08-24T01:17:06.372Z,8.90
2018-08-24T01:19:38.370Z,8.33
2018-08-24T01:22:08.280Z,8.43
2018-08-24T01:24:39.872Z,8.03
2018-08-24T01:27:14.434Z,7.40
2018-08-24T01:29:51.774Z,8.53
2018-08-24T01:32:23.488Z,8.77
2018-08-24T01:34:53.703Z,9.03
2018-08-24T01:37:31.185Z,8.63
2018-08-24T01:40:07.290Z,8.77
2018-08-24T01:42:39.248Z,8.23
2018-08-24T01:47:49.350Z,8.40
2018-08-24T01:50:30.541Z,7.87
2018-08-24T01:53:00.480Z,10.47
2018-08-24T01:55:30.992Z,10.87
2018-08-24T01:58:00.452Z,10.93
2018-08-24T02:00:31.555Z,11.73
2018-08-24T02:05:44.098Z,11.20
2018-08-24T02:08:18.168Z,10.97
2018-08-24T02:19:37.428Z,13.77
2018-08-24T02:22:13.833Z,13.47
2018-08-24T02:24:45.376Z,13.90
2018-08-24T02:27:18.875Z,13.67
2018-08-24T02:29:59.721Z,14.97
2018-08-24T02:32:30.016Z,13.17
2018-08-24T02:35:01.411Z,13.03
2018-08-24T02:37:44.621Z,9.83
2018-08-24T02:43:28.374Z,14.67
2018-08-24T02:49:33.646Z,16.80
2018-08-24T03:00:56.368Z,16.53
2018-08-24T03:03:25.282Z,15.23
2018-08-24T03:05:54.004Z,19.40
2018-08-24T03:08:22.790Z,20.92
2018-08-24T03:10:51.486Z,19.95
2018-08-24T03:13:20.320Z,19.80
2018-08-24T03:15:49.570Z,17.20
2018-08-24T03:18:18.682Z,19.15
2018-08-24T03:20:47.428Z,17.30
2018-08-24T03:23:16.425Z,16.27
2018-08-24T03:25:46.385Z,17.67
2018-08-24T03:28:16.510Z,17.40
2018-08-24T03:30:46.138Z,16.00
2018-08-24T03:33:16.383Z,18.63
2018-08-24T03:35:46.636Z,19.73
2018-08-24T03:38:15.979Z,19.07
2018-08-24T03:40:46.667Z,17.13
2018-08-24T03:43:15.695Z,15.90
2018-08-24T03:45:46.015Z,15.77
2018-08-24T03:48:16.146Z,15.63
2018-08-24T03:50:45.826Z,17.73
2018-08-24T03:53:15.655Z,16.50
2018-08-24T03:55:46.612Z,15.83
2018-08-24T03:58:16.100Z,22.27
2018-08-24T04:00:46.539Z,16.50
2018-08-24T04:03:15.229Z,14.40
2018-08-24T04:05:44.298Z,13.93
2018-08-24T04:08:13.035Z,16.97
2018-08-24T04:10:42.563Z,12.88
2018-08-24T04:13:11.282Z,12.60
2018-08-24T04:15:39.638Z,11.35
2018-08-24T04:18:07.991Z,10.70
2018-08-24T04:20:36.344Z,9.83
2018-08-24T04:23:05.344Z,9.40
2018-08-24T04:25:33.903Z,9.77
2018-08-24T04:28:02.207Z,8.85
2018-08-24T04:30:30.691Z,9.00
2018-08-24T04:32:59.153Z,8.65
2018-08-24T04:35:27.439Z,9.97
2018-08-24T04:37:55.709Z,9.17
2018-08-24T04:40:24.095Z,9.43
2018-08-24T04:42:52.269Z,9.60
2018-08-24T04:45:20.651Z,8.93
2018-08-24T04:47:49.120Z,8.70
2018-08-24T04:50:17.822Z,8.90
2018-08-24T04:52:46.716Z,8.40
2018-08-24T04:55:15.171Z,8.63
2018-08-24T04:57:43.800Z,8.47
2018-08-24T05:00:12.161Z,7.90
2018-08-24T05:02:40.459Z,8.00
2018-08-24T05:05:09.337Z,6.97
2018-08-24T05:07:37.703Z,7.70
2018-08-24T05:10:06.347Z,7.45
2018-08-24T05:12:41.388Z,6.90
2018-08-24T05:15:09.695Z,6.53
2018-08-24T05:17:38.034Z,6.40
2018-08-24T05:20:06.558Z,6.27
2018-08-24T05:22:34.968Z,6.22
2018-08-24T05:25:03.448Z,5.97
2018-08-24T05:27:31.699Z,5.83
2018-08-24T05:30:01.000Z,6.07
2018-08-24T05:32:29.370Z,5.67
2018-08-24T05:34:57.657Z,5.42
2018-08-24T05:37:26.032Z,4.87
2018-08-24T05:39:54.298Z,4.90
2018-08-24T05:42:22.593Z,4.42
2018-08-24T05:44:50.945Z,4.83
2018-08-24T05:47:19.754Z,4.30
2018-08-24T05:49:48.107Z,4.50
2018-08-24T05:52:16.427Z,4.08
2018-08-24T05:54:46.123Z,4.27
2018-08-24T05:57:15.732Z,3.83
2018-08-24T05:59:44.716Z,3.50
2018-08-24T06:02:13.097Z,3.13
2018-08-24T06:04:41.394Z,3.15
2018-08-24T06:07:09.680Z,3.30
2018-08-24T06:09:37.920Z,2.87
2018-08-24T06:12:06.209Z,3.10
2018-08-24T06:14:34.473Z,3.50
2018-08-24T06:17:08.145Z,3.40
2018-08-24T06:19:36.547Z,3.17
2018-08-24T06:22:05.096Z,3.00
2018-08-24T06:24:33.452Z,2.87
2018-08-24T06:27:01.960Z,3.50
2018-08-24T06:29:30.278Z,3.03
2018-08-24T06:31:58.550Z,3.30
2018-08-24T06:34:26.883Z,2.90
2018-08-24T06:36:55.144Z,3.10
2018-08-24T06:39:23.440Z,2.83
2018-08-24T06:41:51.763Z,3.10
2018-08-24T06:44:20.975Z,2.80
2018-08-24T06:46:49.345Z,2.27
2018-08-24T06:49:17.793Z,2.58
2018-08-24T06:51:46.318Z,2.90
2018-08-24T06:54:16.416Z,3.17
2018-08-24T06:56:45.507Z,2.93
2018-08-24T06:59:15.261Z,3.00
2018-08-24T07:01:44.372Z,3.23
2018-08-24T07:04:13.834Z,3.60
2018-08-24T07:06:43.573Z,3.40
2018-08-24T07:09:12.614Z,3.07
2018-08-24T07:11:40.966Z,3.10
2018-08-24T07:14:09.329Z,3.33
2018-08-24T07:16:37.652Z,2.90
2018-08-24T07:19:06.070Z,3.20
2018-08-24T07:21:35.462Z,3.13
2018-08-24T07:24:04.116Z,4.40
2018-08-24T07:26:33.466Z,4.33
2018-08-24T07:29:03.503Z,3.87
2018-08-24T07:31:31.817Z,3.80
2018-08-24T07:34:00.195Z,4.12
2018-08-24T07:36:28.661Z,3.60
2018-08-24T07:38:56.996Z,4.15
2018-08-24T07:41:25.586Z,4.50
2018-08-24T07:43:59.435Z,4.65
2018-08-24T07:46:27.946Z,4.90
2018-08-24T07:48:56.230Z,5.15
2018-08-24T07:51:24.498Z,5.73
2018-08-24T07:53:52.793Z,5.37
2018-08-24T07:56:21.065Z,5.73
2018-08-24T07:58:49.413Z,6.67
2018-08-24T08:01:18.025Z,5.80
2018-08-24T08:03:46.982Z,6.53
2018-08-24T08:06:15.383Z,5.93
2018-08-24T08:08:44.284Z,6.37
2018-08-24T08:11:12.967Z,6.67
2018-08-24T08:13:41.224Z,5.97
2018-08-24T08:16:10.505Z,6.05
2018-08-24T08:18:38.837Z,6.70
2018-08-24T08:21:07.144Z,6.97
2018-08-24T08:23:35.459Z,6.92
2018-08-24T08:26:03.812Z,7.13
2018-08-24T08:28:32.214Z,8.20
2018-08-24T08:31:00.506Z,7.13
2018-08-24T08:33:28.792Z,7.33
2018-08-24T08:35:57.069Z,6.30
2018-08-24T08:38:25.336Z,8.17
2018-08-24T08:40:53.600Z,6.92
2018-08-24T08:43:21.998Z,7.40
2018-08-24T08:45:50.493Z,7.45
2018-08-24T08:48:18.837Z,8.37
2018-08-24T08:50:47.128Z,7.08
2018-08-24T08:53:15.712Z,7.50
2018-08-24T08:55:44.397Z,6.97
2018-08-24T08:58:13.354Z,7.35
2018-08-24T09:00:41.698Z,7.10
2018-08-24T09:03:10.032Z,6.73
2018-08-24T09:05:38.285Z,7.43
2018-08-24T09:08:06.541Z,7.37
2018-08-24T09:10:34.937Z,7.03
2018-08-24T09:13:03.381Z,6.65
2018-08-24T09:15:31.630Z,7.83
2018-08-24T09:19:08.157Z,6.47
2018-08-24T09:21:42.739Z,6.93
2018-08-24T09:24:16.301Z,7.93
2018-08-24T09:26:50.750Z,7.13
2018-08-24T09:29:25.699Z,7.23
2018-08-24T09:31:54.337Z,8.00
2018-08-24T09:34:22.784Z,9.10
2018-08-24T09:36:51.143Z,9.50
2018-08-24T09:39:25.853Z,9.85
2018-08-24T09:41:56.075Z,9.20
2018-08-24T09:44:24.369Z,9.47
2018-08-24T09:46:58.049Z,8.77
2018-08-24T09:49:26.837Z,8.67
2018-08-24T09:51:55.339Z,9.40
2018-08-24T09:54:24.024Z,8.55
2018-08-24T09:56:52.485Z,10.20
2018-08-24T09:59:20.777Z,9.08
2018-08-24T10:01:56.167Z,9.47
2018-08-24T10:04:29.719Z,8.47
2018-08-24T10:07:03.367Z,8.77
2018-08-24T10:09:31.779Z,9.20
2018-08-24T10:12:00.139Z,9.50
2018-08-24T10:14:28.461Z,9.97
2018-08-24T10:16:56.725Z,10.30
2018-08-24T10:19:25.016Z,10.77
2018-08-24T10:21:53.363Z,10.83
2018-08-24T10:24:21.638Z,10.00
2018-08-24T10:26:50.087Z,10.40
2018-08-24T10:29:18.779Z,10.53
2018-08-24T10:31:47.684Z,10.67
2018-08-24T10:34:16.387Z,9.47
2018-08-24T10:36:47.143Z,9.57
2018-08-24T10:39:15.655Z,8.73
2018-08-24T10:41:45.263Z,7.30
2018-08-24T10:44:13.951Z,6.67
2018-08-24T10:46:42.193Z,7.50
2018-08-24T10:49:10.518Z,6.73
2018-08-24T10:51:38.738Z,6.67
2018-08-24T10:54:07.092Z,6.43
2018-08-24T10:56:35.397Z,7.07
2018-08-24T10:59:03.975Z,6.80
2018-08-24T11:01:32.257Z,6.07
2018-08-24T11:04:00.545Z,5.67
2018-08-24T11:06:35.160Z,5.42
2018-08-24T11:09:05.033Z,4.83
2018-08-24T11:11:33.547Z,4.77
2018-08-24T11:14:01.993Z,5.05
2018-08-24T11:16:30.259Z,4.87
2018-08-24T11:18:58.577Z,5.15
2018-08-24T11:21:26.927Z,4.77
2018-08-24T11:23:55.333Z,4.57
2018-08-24T11:26:23.626Z,4.50
2018-08-24T11:28:51.891Z,4.50
2018-08-24T11:31:20.266Z,4.60
2018-08-24T11:33:48.665Z,5.15
2018-08-24T11:36:17.258Z,4.80
2018-08-24T11:38:45.724Z,4.87
2018-08-24T11:41:14.948Z,4.50
2018-08-24T11:43:44.532Z,5.10
2018-08-24T11:46:13.589Z,4.40
2018-08-24T11:48:43.828Z,4.67
2018-08-24T11:51:12.070Z,4.20
2018-08-24T11:53:40.389Z,5.00
2018-08-24T11:56:08.670Z,4.20
2018-08-24T11:58:37.025Z,4.40
2018-08-24T12:01:05.342Z,4.45
2018-08-24T12:03:33.729Z,4.03
2018-08-24T12:06:02.007Z,4.10
2018-08-24T12:08:30.296Z,3.80
2018-08-24T12:10:58.492Z,3.93
2018-08-24T12:13:26.745Z,4.12
2018-08-24T12:15:54.964Z,3.57
2018-08-24T12:18:23.272Z,3.73
2018-08-24T12:20:51.429Z,3.62
2018-08-24T12:23:19.798Z,3.77
2018-08-24T12:25:48.260Z,4.08
2018-08-24T12:28:17.759Z,3.40
2018-08-24T12:30:46.294Z,3.08
2018-08-24T12:33:15.250Z,3.40
2018-08-24T12:35:44.526Z,3.53
2018-08-24T12:38:13.630Z,3.70
2018-08-24T12:40:42.600Z,3.37
2018-08-24T12:43:10.868Z,3.47
2018-08-24T12:45:39.105Z,3.40
2018-08-24T12:48:07.377Z,3.40
2018-08-24T12:50:35.688Z,3.30
2018-08-24T12:53:03.996Z,3.20
2018-08-24T12:55:32.219Z,3.47
2018-08-24T12:58:00.454Z,3.50
2018-08-24T13:00:28.680Z,3.13
2018-08-24T13:02:56.905Z,3.20
2018-08-24T13:05:25.140Z,3.50
2018-08-24T13:07:53.442Z,3.23
2018-08-24T13:10:22.149Z,2.67
2018-08-24T13:12:50.422Z,2.80
2018-08-24T13:15:18.867Z,2.00
2018-08-24T13:17:47.687Z,2.60
2018-08-24T13:20:16.023Z,2.90
2018-08-24T13:22:46.047Z,2.67
2018-08-24T13:25:15.545Z,3.00
2018-08-24T13:27:45.250Z,3.30
2018-08-24T13:30:14.063Z,2.77
2018-08-24T13:32:43.347Z,3.03
2018-08-24T13:35:11.666Z,3.00
2018-08-24T13:37:39.942Z,3.03
2018-08-24T13:40:08.220Z,3.27
2018-08-24T13:42:36.491Z,3.30
2018-08-24T13:45:04.755Z,2.90
2018-08-24T13:47:33.159Z,3.22
2018-08-24T13:50:01.344Z,3.03
2018-08-24T13:52:29.554Z,3.87
2018-08-24T13:54:57.791Z,3.00
2018-08-24T13:57:26.108Z,3.37
2018-08-24T13:59:54.358Z,2.80
2018-08-24T14:02:22.709Z,3.12
2018-08-24T14:04:51.159Z,2.80
2018-08-24T14:07:19.439Z,2.87
2018-08-24T14:09:47.942Z,2.83
2018-08-24T14:12:16.667Z,2.92
2018-08-24T14:14:45.117Z,2.90
2018-08-24T14:17:14.028Z,2.83
2018-08-24T14:19:43.548Z,2.70
2018-08-24T14:22:12.548Z,2.70
2018-08-24T14:24:40.805Z,2.50
2018-08-24T14:27:09.088Z,2.97
2018-08-24T14:29:37.353Z,2.70
2018-08-24T14:32:05.747Z,2.63
2018-08-24T14:34:34.094Z,2.77
2018-08-24T14:37:02.468Z,2.40
2018-08-24T14:39:30.734Z,2.60
2018-08-24T14:41:58.987Z,2.30
2018-08-24T14:44:27.334Z,2.47
2018-08-24T14:46:55.641Z,2.77
2018-08-24T14:49:23.884Z,2.70
2018-08-24T14:51:52.136Z,2.50
2018-08-24T14:54:20.543Z,2.60
2018-08-24T14:56:48.878Z,2.67
2018-08-24T14:59:17.208Z,2.55
2018-08-24T15:01:45.598Z,2.70
2018-08-24T15:04:15.040Z,2.63
2018-08-24T15:06:44.360Z,2.50
2018-08-24T15:09:13.706Z,2.60
2018-08-24T15:11:42.690Z,2.63
2018-08-24T15:14:10.969Z,2.93
2018-08-24T15:16:39.279Z,2.67
2018-08-24T15:19:07.641Z,2.52
2018-08-24T15:21:39.083Z,2.53
2018-08-24T15:24:07.629Z,2.80
2018-08-24T15:26:35.885Z,2.60
2018-08-24T15:29:04.150Z,3.27
2018-08-24T15:31:32.630Z,2.77
2018-08-24T15:34:01.017Z,2.83
2018-08-24T15:36:31.313Z,3.00
2018-08-24T15:38:59.652Z,2.90
2018-08-24T15:41:27.957Z,2.50
2018-08-24T15:43:56.481Z,2.83
2018-08-24T15:46:25.036Z,2.80
2018-08-24T15:48:53.271Z,2.97
2018-08-24T15:51:21.550Z,2.53
2018-08-24T15:53:52.863Z,2.65
2018-08-24T15:56:21.192Z,2.50
2018-08-24T15:58:49.509Z,3.10
2018-08-24T16:01:18.244Z,2.83
2018-08-24T16:03:47.702Z,2.60
2018-08-24T16:06:15.974Z,2.83
2018-08-24T16:08:46.539Z,2.67
2018-08-24T16:11:17.360Z,2.83
2018-08-24T16:13:48.455Z,2.60
2018-08-24T16:16:17.013Z,2.33
2018-08-24T16:18:45.828Z,2.60
2018-08-24T16:21:16.060Z,2.33
2018-08-24T16:23:46.861Z,2.70
2018-08-24T16:26:20.545Z,2.13
2018-08-24T16:28:49.737Z,2.40
2018-08-24T16:31:19.368Z,2.80
2018-08-24T16:33:47.877Z,2.50
2018-08-24T16:36:16.452Z,2.50
2018-08-24T16:38:46.428Z,2.90
2018-08-24T16:41:16.337Z,2.63
2018-08-24T16:43:46.355Z,2.00
2018-08-24T16:46:17.232Z,2.80
2018-08-24T16:48:45.847Z,2.80
2018-08-24T16:51:15.668Z,2.45
2018-08-24T16:53:44.810Z,2.77
2018-08-24T16:56:14.470Z,3.40
2018-08-24T16:58:43.856Z,1.80
2018-08-24T17:01:12.131Z,2.50
2018-08-24T17:03:40.439Z,2.47
2018-08-24T17:06:08.669Z,2.60
2018-08-24T17:08:36.986Z,2.30
2018-08-24T17:11:05.299Z,2.67
2018-08-24T17:13:33.703Z,2.42
2018-08-24T17:16:02.718Z,2.47
2018-08-24T17:18:33.776Z,2.33
2018-08-24T17:21:04.590Z,2.33
2018-08-24T17:23:35.804Z,2.57
2018-08-24T17:28:52.813Z,2.00
2018-08-24T17:31:30.328Z,2.23
2018-08-24T17:34:02.294Z,2.10
2018-08-24T17:36:30.745Z,2.00
2018-08-24T17:39:17.363Z,2.85
2018-08-24T17:41:45.681Z,1.97
2018-08-24T17:44:14.905Z,2.17
2018-08-24T17:46:46.655Z,2.23
2018-08-24T17:49:20.129Z,2.10
2018-08-24T17:51:51.573Z,2.10
2018-08-24T17:54:21.271Z,2.10
2018-08-24T17:56:49.898Z,1.90
2018-08-24T17:59:21.193Z,2.08
2018-08-24T18:02:02.422Z,2.23
2018-08-24T18:04:37.028Z,2.13
2018-08-24T18:07:05.688Z,1.70
2018-08-24T18:09:35.387Z,2.00
2018-08-24T18:12:04.372Z,2.03
2018-08-24T18:14:44.758Z,2.07
2018-08-24T18:17:18.081Z,1.93
2018-08-24T18:19:48.240Z,2.20
2018-08-24T18:22:17.417Z,2.13
2018-08-24T18:24:45.855Z,2.40
2018-08-24T18:27:15.847Z,1.98
2018-08-24T18:29:44.816Z,1.90
2018-08-24T18:32:13.021Z,2.23
2018-08-24T18:34:41.454Z,2.43
2018-08-24T18:37:09.952Z,2.08
2018-08-24T18:39:39.105Z,2.10
2018-08-24T18:42:07.382Z,1.77
2018-08-24T18:44:35.789Z,2.30
2018-08-24T18:47:04.132Z,2.20
2018-08-24T18:49:32.556Z,1.80
2018-08-24T18:52:00.888Z,1.80
2018-08-24T18:54:29.168Z,2.00
2018-08-24T18:56:57.677Z,2.17
2018-08-24T18:59:25.985Z,2.00
2018-08-24T19:01:54.385Z,2.73
2018-08-24T19:04:22.693Z,1.90
2018-08-24T19:06:51.006Z,2.23
2018-08-24T19:09:19.288Z,1.87
2018-08-24T19:11:52.856Z,1.90
2018-08-24T19:14:24.248Z,2.10
2018-08-24T19:16:53.174Z,1.90
2018-08-24T19:19:26.965Z,1.60
2018-08-24T19:22:04.062Z,2.23
2018-08-24T19:24:35.636Z,2.00
2018-08-24T19:27:04.021Z,2.00
2018-08-24T19:30:37.220Z,1.85
2018-08-24T19:33:05.560Z,1.90
2018-08-24T19:35:33.861Z,2.05
2018-08-24T19:38:02.239Z,2.23
2018-08-24T19:40:35.941Z,1.70
2018-08-24T19:43:04.206Z,1.83
2018-08-24T19:45:32.478Z,1.90
2018-08-24T19:48:06.054Z,1.70
2018-08-24T19:50:34.504Z,1.87
2018-08-24T19:53:02.824Z,1.77
2018-08-24T19:55:31.255Z,2.00
2018-08-24T19:58:04.957Z,2.00
2018-08-24T20:00:34.427Z,1.87
2018-08-24T20:03:06.497Z,1.90
2018-08-24T20:05:34.858Z,2.03
2018-08-24T20:08:08.632Z,1.70
2018-08-24T20:10:39.003Z,1.83
2018-08-24T20:13:07.464Z,1.70
2018-08-24T20:15:41.030Z,1.60
2018-08-24T20:18:09.241Z,1.90
2018-08-24T20:20:37.517Z,1.60
2018-08-24T20:23:06.219Z,2.00
2018-08-24T20:25:34.644Z,1.93
2018-08-24T20:28:02.916Z,1.85
2018-08-24T20:30:32.310Z,1.90
2018-08-24T20:33:06.440Z,2.07
2018-08-24T20:35:36.687Z,2.00
2018-08-24T20:38:05.344Z,1.87
2018-08-24T20:40:39.244Z,2.08
2018-08-24T20:43:07.476Z,1.97
2018-08-24T20:45:36.362Z,1.90
2018-08-24T20:48:13.265Z,1.92
2018-08-24T20:50:41.513Z,2.10
2018-08-24T20:53:09.777Z,2.17
2018-08-24T20:55:38.104Z,2.00
2018-08-24T20:58:06.255Z,1.77
2018-08-24T21:00:34.534Z,2.00
2018-08-24T21:03:03.408Z,1.92
2018-08-24T21:05:31.684Z,1.90
2018-08-24T21:07:59.878Z,2.20
2018-08-24T21:10:28.145Z,1.60
2018-08-24T21:12:56.405Z,2.00
2018-08-24T21:15:24.708Z,1.70
2018-08-24T21:17:53.001Z,1.85
2018-08-24T21:20:21.311Z,1.50
2018-08-24T21:22:50.106Z,1.87
2018-08-24T21:25:18.478Z,1.87
2018-08-24T21:27:47.016Z,1.70
2018-08-24T21:30:15.559Z,1.90
2018-08-24T21:32:44.953Z,2.25
2018-08-24T21:35:14.504Z,2.37
2018-08-24T21:37:43.824Z,2.57
2018-08-24T21:40:12.147Z,2.20
2018-08-24T21:42:40.709Z,2.55
2018-08-24T21:45:09.258Z,2.90
2018-08-24T21:47:37.532Z,2.42
2018-08-24T21:50:05.957Z,2.33
2018-08-24T21:52:35.368Z,2.17
2018-08-24T21:55:03.747Z,2.57
2018-08-24T21:57:32.032Z,2.40
2018-08-24T22:00:00.311Z,2.15
2018-08-24T22:02:28.573Z,2.67
2018-08-24T22:04:56.881Z,2.20
2018-08-24T22:07:31.177Z,2.30
2018-08-24T22:09:59.520Z,2.23
2018-08-24T22:12:27.779Z,2.27
2018-08-24T22:14:56.009Z,1.98
2018-08-24T22:17:24.272Z,1.77
2018-08-24T22:19:52.492Z,2.00
2018-08-24T22:22:20.749Z,1.92
2018-08-24T22:24:49.051Z,1.80
2018-08-24T22:27:17.392Z,2.10
2018-08-24T22:29:45.856Z,1.75
2018-08-24T22:32:14.920Z,2.10
2018-08-24T22:34:44.756Z,1.70
2018-08-24T22:37:13.016Z,2.00
2018-08-24T22:39:41.247Z,1.90
2018-08-24T22:42:09.543Z,1.70
2018-08-24T22:44:37.765Z,1.53
2018-08-24T22:47:06.110Z,1.80
2018-08-24T22:49:34.385Z,1.72
2018-08-24T22:52:02.652Z,1.53
2018-08-24T22:54:31.307Z,2.07
2018-08-24T22:56:59.527Z,1.60
2018-08-24T22:59:27.760Z,1.75
2018-08-24T23:01:56.000Z,1.90
2018-08-24T23:04:25.218Z,1.50
2018-08-24T23:06:53.486Z,1.80
2018-08-24T23:09:21.840Z,1.97
2018-08-24T23:11:50.104Z,1.60
2018-08-24T23:14:18.415Z,1.60
2018-08-24T23:16:46.778Z,1.77
2018-08-24T23:19:15.446Z,1.80
2018-08-24T23:21:45.286Z,1.80
2018-08-24T23:24:15.207Z,1.83
2018-08-24T23:26:44.353Z,1.83
2018-08-24T23:29:14.191Z,2.03
2018-08-24T23:31:43.662Z,2.20
2018-08-24T23:34:12.805Z,1.60
2018-08-24T23:36:40.994Z,1.87
2018-08-24T23:39:10.136Z,1.63
2018-08-24T23:41:38.407Z,1.90
2018-08-24T23:44:14.716Z,1.90
2018-08-24T23:46:44.117Z,1.73
2018-08-24T23:49:13.579Z,1.80
2018-08-24T23:51:42.585Z,1.80
2018-08-24T23:54:10.838Z,2.10
2018-08-24T23:56:39.030Z,1.90
2018-08-24T23:59:07.296Z,1.80
